createdAt,value
2023-02-17T00:00:00.133Z,100612.19
2023-02-17T00:02:29.614Z,100609.78
2023-02-17T00:04:59.032Z,100609.00
2023-02-17T00:07:36.179Z,100597.19
2023-02-17T00:10:05.619Z,100600.44
2023-02-17T00:12:34.844Z,100596.47
2023-02-17T00:15:06.714Z,100578.97
2023-02-17T00:17:36.018Z,100586.00
2023-02-17T00:20:05.609Z,100603.88
2023-02-17T00:22:40.679Z,100594.78
2023-02-17T00:25:10.109Z,100589.16
2023-02-17T00:27:39.275Z,100598.47
2023-02-17T00:30:12.435Z,100605.38
2023-02-17T00:32:47.725Z,100593.78
2023-02-17T00:35:17.078Z,100601.88
2023-02-17T00:37:46.498Z,100588.41
2023-02-17T00:40:16.685Z,100573.84
2023-02-17T00:42:51.050Z,100578.63
2023-02-17T00:45:22.750Z,100591.06
2023-02-17T00:47:52.101Z,100592.50
2023-02-17T00:50:21.440Z,100577.56
2023-02-17T00:52:50.525Z,100592.47
2023-02-17T00:55:19.865Z,100573.53
2023-02-17T00:57:51.916Z,100586.13
2023-02-17T01:00:23.598Z,100524.34
2023-02-17T01:02:57.508Z,100586.19
2023-02-17T01:08:02.037Z,100600.03
2023-02-17T01:10:31.125Z,100573.91
2023-02-17T01:13:00.445Z,100585.28
2023-02-17T01:15:32.553Z,100559.34
2023-02-17T01:18:02.197Z,100575.97
2023-02-17T01:20:31.316Z,100579.44
2023-02-17T01:23:01.079Z,100587.53
2023-02-17T01:25:32.101Z,100585.94
2023-02-17T01:28:01.695Z,100580.44
2023-02-17T01:30:32.813Z,100578.88
2023-02-17T01:33:02.067Z,100577.16
2023-02-17T01:35:31.211Z,100558.56
2023-02-17T01:38:00.449Z,100581.75
2023-02-17T01:40:30.096Z,100584.63
2023-02-17T01:42:59.651Z,100581.91
2023-02-17T01:45:48.342Z,100588.81
2023-02-17T01:48:20.825Z,100585.22
2023-02-17T01:50:56.283Z,100596.72
2023-02-17T01:53:31.126Z,100588.66
2023-02-17T01:56:00.479Z,100580.88
2023-02-17T01:58:31.831Z,100583.44
2023-02-17T02:01:06.574Z,100586.63
2023-02-17T02:03:40.004Z,100577.25
2023-02-17T02:06:13.838Z,100582.19
2023-02-17T02:08:53.001Z,100595.94
2023-02-17T02:11:22.932Z,100592.63
2023-02-17T02:13:54.369Z,100588.72
2023-02-17T02:16:35.779Z,100592.66
2023-02-17T02:19:23.111Z,100595.53
2023-02-17T02:22:46.038Z,100599.03
2023-02-17T02:25:34.983Z,100593.69
2023-02-17T02:28:23.514Z,100594.69
2023-02-17T02:31:27.433Z,100591.19
2023-02-17T02:36:48.926Z,100559.72
2023-02-17T02:39:20.335Z,100592.19
2023-02-17T02:41:52.100Z,100583.09
2023-02-17T02:44:23.039Z,100572.50
2023-02-17T02:46:59.223Z,100563.59
2023-02-17T02:49:34.520Z,100585.25
2023-02-17T02:52:14.593Z,100586.25
2023-02-17T02:54:52.801Z,100587.44
2023-02-17T02:57:36.616Z,100586.03
2023-02-17T03:00:17.156Z,100577.38
2023-02-17T03:02:53.307Z,100584.16
2023-02-17T03:05:38.847Z,100576.31
2023-02-17T03:08:13.098Z,100598.00
2023-02-17T03:10:49.044Z,100591.78
2023-02-17T03:13:18.855Z,100544.56
2023-02-17T03:15:48.782Z,100574.56
2023-02-17T03:18:18.380Z,100577.81
2023-02-17T03:20:54.768Z,100559.88
2023-02-17T03:23:29.117Z,100590.25
2023-02-17T03:25:58.570Z,100585.44
2023-02-17T03:28:27.835Z,100587.88
2023-02-17T03:30:57.253Z,100593.09
2023-02-17T03:33:26.602Z,100505.88
2023-02-17T03:36:02.846Z,100558.13
2023-02-17T03:38:32.841Z,100589.16
2023-02-17T03:41:01.887Z,100593.34
2023-02-17T03:43:36.319Z,100584.03
2023-02-17T03:46:06.079Z,100601.88
2023-02-17T03:48:35.768Z,100591.78
2023-02-17T03:51:15.085Z,100603.63
2023-02-17T03:53:45.159Z,100586.34
2023-02-17T03:56:15.595Z,100593.44
2023-02-17T03:58:45.171Z,100580.41
2023-02-17T04:01:15.307Z,100588.97
2023-02-17T04:06:22.128Z,100593.88
2023-02-17T04:08:51.495Z,100590.91
2023-02-17T04:11:20.750Z,100592.00
2023-02-17T04:13:50.415Z,100592.88
2023-02-17T04:16:19.463Z,100594.09
2023-02-17T04:18:48.728Z,100589.84
2023-02-17T04:21:31.671Z,100597.16
2023-02-17T04:24:02.882Z,100599.19
2023-02-17T04:26:41.550Z,100596.75
2023-02-17T04:29:10.770Z,100596.75
2023-02-17T04:31:45.041Z,100604.94
2023-02-17T04:34:14.200Z,100600.69
2023-02-17T04:36:45.392Z,100597.63
2023-02-17T04:39:19.810Z,100603.75
2023-02-17T04:41:49.220Z,100602.66
2023-02-17T04:44:18.283Z,100609.38
2023-02-17T04:46:47.448Z,100597.63
2023-02-17T04:49:16.691Z,100588.56
2023-02-17T04:51:47.854Z,100594.84
2023-02-17T04:54:17.124Z,100591.03
2023-02-17T04:56:46.176Z,100593.97
2023-02-17T04:59:15.326Z,100596.91
2023-02-17T05:01:49.581Z,100598.09
2023-02-17T05:04:18.796Z,100592.50
2023-02-17T05:06:54.870Z,100592.34
2023-02-17T05:09:34.210Z,100597.38
2023-02-17T05:12:10.165Z,100602.41
2023-02-17T05:14:40.127Z,100596.56
2023-02-17T05:17:09.331Z,100567.59
2023-02-17T05:19:43.490Z,100592.28
2023-02-17T05:22:14.762Z,100596.44
2023-02-17T05:24:44.502Z,100565.06
2023-02-17T05:27:13.742Z,100590.06
2023-02-17T05:29:48.285Z,100603.97
2023-02-17T05:32:17.679Z,100603.97
2023-02-17T05:34:47.006Z,100602.66
2023-02-17T05:37:23.396Z,100596.00
2023-02-17T05:39:52.739Z,100595.75
2023-02-17T05:42:21.897Z,100588.72
2023-02-17T05:47:35.079Z,100596.31
2023-02-17T05:50:04.593Z,100595.44
2023-02-17T05:52:36.072Z,100611.47
2023-02-17T05:55:05.558Z,100601.59
2023-02-17T05:57:35.087Z,100599.09
2023-02-17T06:00:05.600Z,100611.41
2023-02-17T06:02:41.884Z,100592.63
2023-02-17T06:05:11.724Z,100605.72
2023-02-17T06:07:42.841Z,100597.59
2023-02-17T06:10:13.069Z,100611.09
2023-02-17T06:12:42.389Z,100607.13
2023-02-17T06:17:51.832Z,100610.28
2023-02-17T06:20:23.183Z,100603.84
2023-02-17T06:22:59.609Z,100555.84
2023-02-17T06:25:28.903Z,100607.94
2023-02-17T06:27:58.040Z,100603.56
2023-02-17T06:30:35.073Z,100609.69
2023-02-17T06:33:04.199Z,100616.16
2023-02-17T06:35:33.442Z,100610.13
2023-02-17T06:38:04.682Z,100606.88
2023-02-17T06:40:33.887Z,100609.38
2023-02-17T06:43:03.061Z,100593.97
2023-02-17T06:45:32.399Z,100605.53
2023-02-17T06:48:01.605Z,100610.78
2023-02-17T06:50:30.970Z,100611.69
2023-02-17T06:53:07.575Z,100609.94
2023-02-17T06:55:38.602Z,100597.81
2023-02-17T07:00:42.791Z,100589.44
2023-02-17T07:03:12.094Z,100584.44
2023-02-17T07:05:46.392Z,100603.59
2023-02-17T07:08:17.449Z,100587.25
2023-02-17T07:10:51.620Z,100588.56
2023-02-17T07:13:20.716Z,100596.34
2023-02-17T07:15:49.893Z,100592.50
2023-02-17T07:18:19.021Z,100592.31
2023-02-17T07:20:48.326Z,100585.38
2023-02-17T07:23:20.084Z,100596.34
2023-02-17T07:25:49.258Z,100591.44
2023-02-17T07:28:18.680Z,100593.03
2023-02-17T07:30:48.048Z,100591.25
2023-02-17T07:33:17.124Z,100589.50
2023-02-17T07:35:46.559Z,100577.41
2023-02-17T07:38:15.702Z,100588.72
2023-02-17T07:40:46.772Z,100584.63
2023-02-17T07:43:21.035Z,100586.78
2023-02-17T07:45:58.956Z,100568.66
2023-02-17T07:48:28.977Z,100559.69
2023-02-17T07:50:58.444Z,100572.94
2023-02-17T07:53:32.857Z,100570.31
2023-02-17T07:56:04.628Z,100573.56
2023-02-17T07:58:34.694Z,100563.41
2023-02-17T08:01:08.091Z,100557.66
2023-02-17T08:03:37.572Z,100572.94
2023-02-17T08:06:10.692Z,100568.41
2023-02-17T08:08:53.327Z,100552.28
2023-02-17T08:11:44.110Z,100569.88
2023-02-17T08:14:27.111Z,100567.75
2023-02-17T08:16:56.962Z,100575.97
2023-02-17T08:19:39.781Z,100575.16
2023-02-17T08:22:22.291Z,100570.75
2023-02-17T08:24:51.660Z,100572.47
2023-02-17T08:27:22.914Z,100570.72
2023-02-17T08:29:57.459Z,100573.97
2023-02-17T08:32:26.653Z,100569.28
2023-02-17T08:34:58.509Z,100571.94
2023-02-17T08:37:29.843Z,100576.94
2023-02-17T08:39:59.224Z,100561.75
2023-02-17T08:42:30.666Z,100558.81
2023-02-17T08:45:00.013Z,100562.97
2023-02-17T08:47:29.238Z,100567.13
2023-02-17T08:50:04.291Z,100565.28
2023-02-17T08:52:33.631Z,100573.19
2023-02-17T08:55:13.604Z,100576.56
2023-02-17T08:57:45.311Z,100557.53
2023-02-17T09:00:15.809Z,100572.47
2023-02-17T09:02:46.669Z,100556.47
2023-02-17T09:05:21.271Z,100569.72
2023-02-17T09:07:50.325Z,100566.59
2023-02-17T09:10:30.349Z,100542.88
2023-02-17T09:13:01.605Z,100558.09
2023-02-17T09:15:30.996Z,100562.69
2023-02-17T09:18:00.125Z,100561.81
2023-02-17T09:20:29.522Z,100555.72
2023-02-17T09:22:58.807Z,100558.19
2023-02-17T09:25:34.776Z,100561.06
2023-02-17T09:28:06.375Z,100557.19
2023-02-17T09:30:36.189Z,100555.16
2023-02-17T09:33:05.608Z,100552.06
2023-02-17T09:35:40.606Z,100550.25
2023-02-17T09:38:09.979Z,100548.41
2023-02-17T09:40:51.948Z,100507.50
2023-02-17T09:43:30.703Z,100528.19
2023-02-17T09:46:04.373Z,100543.00
2023-02-17T09:48:35.854Z,100533.78
2023-02-17T09:51:19.191Z,100526.81
2023-02-17T09:53:53.702Z,100529.00
2023-02-17T09:56:27.340Z,100538.00
2023-02-17T09:59:04.022Z,100532.22
2023-02-17T10:01:35.650Z,100537.88
2023-02-17T10:04:10.474Z,100529.53
2023-02-17T10:06:41.805Z,100522.34
2023-02-17T10:09:18.173Z,100496.69
2023-02-17T10:11:58.396Z,100513.91
2023-02-17T10:14:33.411Z,100488.63
2023-02-17T10:17:11.104Z,100513.53
2023-02-17T10:19:49.679Z,100523.69
2023-02-17T10:22:22.166Z,100506.75
2023-02-17T10:24:52.176Z,100499.38
2023-02-17T10:27:37.707Z,100513.72
2023-02-17T10:30:22.406Z,100511.13
2023-02-17T10:33:02.689Z,100491.78
2023-02-17T10:35:50.271Z,100494.44
2023-02-17T10:38:40.053Z,100489.03
2023-02-17T10:41:15.474Z,100482.91
2023-02-17T10:43:56.532Z,100491.50
2023-02-17T10:46:34.416Z,100502.84
2023-02-17T10:49:06.254Z,100488.13
2023-02-17T10:51:36.659Z,100489.94
2023-02-17T10:56:52.904Z,100485.84
2023-02-17T10:59:26.081Z,100462.28
2023-02-17T11:02:00.919Z,100476.66
2023-02-17T11:07:12.126Z,100470.13
2023-02-17T11:09:47.118Z,100475.06
2023-02-17T11:12:18.627Z,100474.06
2023-02-17T11:14:50.419Z,100479.19
2023-02-17T11:17:25.491Z,100468.50
2023-02-17T11:20:04.207Z,100463.09
2023-02-17T11:22:38.234Z,100450.47
2023-02-17T11:25:21.395Z,100459.47
2023-02-17T11:27:54.512Z,100461.34
2023-02-17T11:33:17.350Z,100477.03
2023-02-17T11:35:51.885Z,100467.47
2023-02-17T11:38:43.054Z,100465.53
2023-02-17T11:41:12.752Z,100461.72
2023-02-17T11:43:52.659Z,100456.28
2023-02-17T11:46:37.337Z,100456.41
2023-02-17T11:49:41.568Z,100452.34
2023-02-17T11:52:29.982Z,100452.00
2023-02-17T11:55:15.016Z,100443.22
2023-02-17T11:57:47.493Z,100450.88
2023-02-17T12:00:22.164Z,100440.69
2023-02-17T12:03:22.845Z,100435.94
2023-02-17T12:06:09.793Z,100437.31
2023-02-17T12:08:51.903Z,100433.06
2023-02-17T12:11:27.979Z,100434.84
2023-02-17T12:14:08.968Z,100416.22
2023-02-17T12:16:48.335Z,100415.28
2023-02-17T12:19:42.439Z,100435.66
2023-02-17T12:22:20.465Z,100420.50
2023-02-17T12:25:17.146Z,100429.56
2023-02-17T12:27:57.163Z,100429.31
2023-02-17T12:30:53.026Z,100381.16
2023-02-17T12:33:50.256Z,100431.31
2023-02-17T12:36:21.397Z,100417.44
2023-02-17T12:38:59.114Z,100425.97
2023-02-17T12:44:17.475Z,100444.75
2023-02-17T12:53:36.143Z,100427.78
2023-02-17T12:56:16.569Z,100429.78
2023-02-17T12:58:46.122Z,100414.72
2023-02-17T13:01:19.428Z,100439.22
2023-02-17T13:03:49.571Z,100446.16
2023-02-17T13:06:32.375Z,100438.31
2023-02-17T13:09:15.119Z,100435.25
2023-02-17T13:11:46.355Z,100431.66
2023-02-17T13:14:28.039Z,100418.59
2023-02-17T13:16:57.648Z,100424.47
2023-02-17T13:19:30.606Z,100424.81
2023-02-17T13:22:01.915Z,100430.28
2023-02-17T13:24:38.110Z,100409.47
2023-02-17T13:27:22.302Z,100427.09
2023-02-17T13:30:02.436Z,100421.00
2023-02-17T13:32:36.074Z,100420.28
2023-02-17T13:35:31.606Z,100407.53
2023-02-17T13:38:01.176Z,100419.09
2023-02-17T13:40:39.595Z,100414.25
2023-02-17T13:43:19.489Z,100413.94
2023-02-17T13:45:54.746Z,100416.81
2023-02-17T13:48:29.419Z,100408.25
2023-02-17T13:51:05.997Z,100405.34
2023-02-17T13:53:38.222Z,100400.38
2023-02-17T13:56:32.497Z,100391.56
2023-02-17T13:59:10.114Z,100386.69
2023-02-17T14:01:43.563Z,100400.94
2023-02-17T14:04:23.239Z,100407.56
2023-02-17T14:07:01.032Z,100353.69
2023-02-17T14:09:32.634Z,100391.34
2023-02-17T14:14:51.009Z,100415.28
2023-02-17T14:17:32.447Z,100383.41
2023-02-17T14:20:02.538Z,100411.19
2023-02-17T14:22:34.606Z,100415.31
2023-02-17T14:25:06.700Z,100409.03
2023-02-17T14:27:46.272Z,100402.69
2023-02-17T14:30:31.183Z,100408.16
2023-02-17T14:35:53.446Z,100402.38
2023-02-17T14:38:24.638Z,100406.84
2023-02-17T14:40:55.459Z,100404.31
2023-02-17T14:43:27.079Z,100398.06
2023-02-17T14:46:01.517Z,100407.06
2023-02-17T14:48:30.716Z,100409.38
2023-02-17T14:51:08.090Z,100409.09
2023-02-17T14:53:40.101Z,100403.47
2023-02-17T14:56:12.411Z,100400.25
2023-02-17T14:58:49.027Z,100408.09
2023-02-17T15:01:25.310Z,100396.47
2023-02-17T15:03:55.616Z,100342.47
2023-02-17T15:06:30.789Z,100401.28
2023-02-17T15:09:02.960Z,100410.09
2023-02-17T15:11:38.062Z,100409.59
2023-02-17T15:14:09.106Z,100402.22
2023-02-17T15:16:38.310Z,100382.16
2023-02-17T15:19:07.423Z,100407.53
2023-02-17T15:21:38.603Z,100411.66
2023-02-17T15:24:16.604Z,100414.88
2023-02-17T15:26:45.879Z,100406.78
2023-02-17T15:29:20.355Z,100402.31
2023-02-17T15:31:51.215Z,100403.09
2023-02-17T15:34:22.729Z,100405.81
2023-02-17T15:36:57.250Z,100400.13
2023-02-17T15:39:26.847Z,100399.22
2023-02-17T15:44:42.961Z,100362.53
2023-02-17T15:47:18.085Z,100397.47
2023-02-17T15:49:47.581Z,100399.72
2023-02-17T15:52:16.966Z,100388.75
2023-02-17T15:54:51.388Z,100389.66
2023-02-17T15:57:24.445Z,100391.19
2023-02-17T15:59:57.286Z,100389.25
2023-02-17T16:02:27.304Z,100382.09
2023-02-17T16:05:07.470Z,100385.56
2023-02-17T16:07:38.390Z,100374.00
2023-02-17T16:10:14.635Z,100368.00
2023-02-17T16:12:44.625Z,100377.38
2023-02-17T16:15:17.936Z,100370.00
2023-02-17T16:17:47.830Z,100366.28
2023-02-17T16:20:19.119Z,100370.09
2023-02-17T16:22:53.666Z,100367.88
2023-02-17T16:25:29.182Z,100361.00
2023-02-17T16:27:59.078Z,100347.31
2023-02-17T16:30:34.496Z,100358.28
2023-02-17T16:33:04.548Z,100349.97
2023-02-17T16:35:34.958Z,100363.66
2023-02-17T16:38:07.244Z,100355.31
2023-02-17T16:40:38.719Z,100323.41
2023-02-17T16:43:13.617Z,100346.72
2023-02-17T16:45:57.099Z,100286.06
2023-02-17T16:48:28.561Z,100327.53
2023-02-17T16:51:08.211Z,100345.75
2023-02-17T16:53:37.458Z,100345.66
2023-02-17T16:56:16.819Z,100339.66
2023-02-17T16:58:46.524Z,100334.13
2023-02-17T17:01:17.873Z,100337.69
2023-02-17T17:03:47.202Z,100332.81
2023-02-17T17:06:22.360Z,100333.00
2023-02-17T17:08:52.303Z,100331.28
2023-02-17T17:11:23.983Z,100298.34
2023-02-17T17:13:53.876Z,100322.34
2023-02-17T17:16:34.481Z,100312.28
2023-02-17T17:19:04.911Z,100319.06
2023-02-17T17:21:34.026Z,100308.56
2023-02-17T17:24:03.206Z,100306.56
2023-02-17T17:26:36.008Z,100307.84
2023-02-17T17:29:11.782Z,100306.97
2023-02-17T17:31:43.399Z,100302.50
2023-02-17T17:34:12.914Z,100302.06
2023-02-17T17:36:44.597Z,100300.63
2023-02-17T17:39:16.599Z,100293.03
2023-02-17T17:41:46.510Z,100298.81
2023-02-17T17:44:15.883Z,100289.22
2023-02-17T17:46:47.407Z,100284.97
2023-02-17T17:49:18.049Z,100274.50
2023-02-17T17:51:52.476Z,100275.59
2023-02-17T17:54:21.973Z,100275.50
2023-02-17T17:56:51.208Z,100273.53
2023-02-17T17:59:20.373Z,100272.63
2023-02-17T18:01:51.416Z,100269.06
2023-02-17T18:04:20.613Z,100263.94
2023-02-17T18:06:51.942Z,100263.19
2023-02-17T18:09:31.676Z,100263.94
2023-02-17T18:12:04.474Z,100259.38
2023-02-17T18:14:37.205Z,100252.78
2023-02-17T18:17:11.668Z,100252.59
2023-02-17T18:19:42.172Z,100255.88
2023-02-17T18:22:11.386Z,100250.31
2023-02-17T18:24:40.931Z,100249.06
2023-02-17T18:27:10.142Z,100245.44
2023-02-17T18:29:39.539Z,100230.19
2023-02-17T18:32:15.994Z,100246.78
2023-02-17T18:34:45.142Z,100249.28
2023-02-17T18:37:19.929Z,100241.09
2023-02-17T18:39:49.214Z,100254.25
2023-02-17T18:42:18.432Z,100251.75
2023-02-17T18:44:52.654Z,100248.13
2023-02-17T18:47:23.784Z,100249.47
2023-02-17T18:49:53.240Z,100250.28
2023-02-17T18:52:22.612Z,100241.53
2023-02-17T18:54:52.417Z,100247.56
2023-02-17T18:57:21.736Z,100244.06
2023-02-17T18:59:51.021Z,100242.34
2023-02-17T19:02:21.495Z,100234.69
2023-02-17T19:04:58.212Z,100230.13
2023-02-17T19:07:27.497Z,100221.38
2023-02-17T19:09:56.567Z,100223.56
2023-02-17T19:12:28.441Z,100219.19
2023-02-17T19:14:57.311Z,100223.03
2023-02-17T19:17:26.998Z,100217.91
2023-02-17T19:22:32.836Z,100209.50
2023-02-17T19:25:02.434Z,100156.94
2023-02-17T19:27:32.531Z,100207.31
2023-02-17T19:30:01.826Z,100211.16
2023-02-17T19:32:33.115Z,100211.91
2023-02-17T19:35:04.578Z,100200.59
2023-02-17T19:37:38.803Z,100217.91
2023-02-17T19:40:10.452Z,100217.47
2023-02-17T19:45:14.706Z,100204.06
2023-02-17T19:47:45.734Z,100181.72
2023-02-17T19:50:17.788Z,100206.16
2023-02-17T19:52:47.428Z,100201.44
2023-02-17T19:55:16.742Z,100204.91
2023-02-17T19:57:46.213Z,100204.69
2023-02-17T20:00:16.339Z,100193.69
2023-02-17T20:02:45.486Z,100171.00
2023-02-17T20:05:16.558Z,100201.28
2023-02-17T20:07:45.736Z,100197.28
2023-02-17T20:10:15.277Z,100196.59
2023-02-17T20:12:44.791Z,100191.69
2023-02-17T20:15:13.977Z,100179.03
2023-02-17T20:17:44.111Z,100181.09
2023-02-17T20:20:18.879Z,100182.53
2023-02-17T20:22:50.134Z,100183.19
2023-02-17T20:25:19.448Z,100174.81
2023-02-17T20:27:49.308Z,100162.00
2023-02-17T20:30:18.928Z,100181.44
2023-02-17T20:32:48.168Z,100188.66
2023-02-17T20:35:17.846Z,100184.09
2023-02-17T20:37:47.338Z,100182.22
2023-02-17T20:42:53.765Z,100174.03
2023-02-17T20:45:22.972Z,100164.44
2023-02-17T20:47:52.238Z,100169.69
2023-02-17T20:50:23.210Z,100163.25
2023-02-17T20:52:56.200Z,100173.19
2023-02-17T20:55:27.746Z,100163.78
2023-02-17T20:58:08.998Z,100164.44
2023-02-17T21:00:38.475Z,100142.00
2023-02-17T21:03:07.958Z,100136.31
2023-02-17T21:05:38.791Z,100143.63
2023-02-17T21:08:08.033Z,100144.50
2023-02-17T21:10:45.493Z,100118.88
2023-02-17T21:13:14.767Z,100126.63
2023-02-17T21:15:43.901Z,100127.03
2023-02-17T21:18:13.921Z,100128.38
2023-02-17T21:20:43.108Z,100134.16
2023-02-17T21:23:17.390Z,100118.03
2023-02-17T21:25:49.156Z,100108.31
2023-02-17T21:28:18.379Z,100115.63
2023-02-17T21:30:48.449Z,100048.28
2023-02-17T21:33:17.650Z,100097.00
2023-02-17T21:35:46.703Z,100085.09
2023-02-17T21:38:22.547Z,100093.50
2023-02-17T21:40:53.953Z,100096.78
2023-02-17T21:43:36.141Z,100102.75
2023-02-17T21:46:12.429Z,100090.56
2023-02-17T21:48:41.653Z,100088.63
2023-02-17T21:51:13.672Z,100086.53
2023-02-17T21:53:43.164Z,100085.75
2023-02-17T21:56:14.413Z,100085.13
2023-02-17T21:58:48.023Z,100080.19
2023-02-17T22:01:23.373Z,100075.63
2023-02-17T22:03:52.781Z,100063.88
2023-02-17T22:06:24.871Z,100056.56
2023-02-17T22:08:54.521Z,100056.78
2023-02-17T22:11:28.590Z,100061.78
2023-02-17T22:13:59.235Z,100069.09
2023-02-17T22:16:30.603Z,100053.28
2023-02-17T22:19:00.898Z,100049.72
2023-02-17T22:21:35.405Z,100051.91
2023-02-17T22:24:09.122Z,100058.50
2023-02-17T22:26:40.435Z,100054.19
2023-02-17T22:29:09.928Z,100050.56
2023-02-17T22:31:39.145Z,100046.78
2023-02-17T22:34:15.606Z,100021.25
2023-02-17T22:36:44.742Z,100044.81
2023-02-17T22:39:13.950Z,100038.69
2023-02-17T22:41:45.119Z,100039.78
2023-02-17T22:44:14.346Z,100022.03
2023-02-17T22:46:43.804Z,100026.72
2023-02-17T22:49:13.006Z,100024.44
2023-02-17T22:51:42.387Z,100017.34
2023-02-17T22:54:12.015Z,100016.94
2023-02-17T22:56:41.225Z,100016.59
2023-02-17T22:59:12.324Z,99995.78
2023-02-17T23:01:41.854Z,100010.59
2023-02-17T23:04:19.839Z,100015.16
2023-02-17T23:06:49.040Z,100004.63
2023-02-17T23:09:20.153Z,100005.06
2023-02-17T23:11:53.489Z,99992.84
2023-02-17T23:14:27.578Z,99995.25
2023-02-17T23:16:59.859Z,99992.31
2023-02-17T23:19:30.352Z,99990.56
2023-02-17T23:22:08.657Z,99996.00
2023-02-17T23:24:37.900Z,99996.84
2023-02-17T23:27:12.109Z,99975.13
2023-02-17T23:29:43.894Z,99981.63
2023-02-17T23:32:12.644Z,99978.47
2023-02-17T23:34:41.677Z,99981.84
2023-02-17T23:37:10.403Z,99972.50
2023-02-17T23:39:39.556Z,99965.53
2023-02-17T23:42:08.364Z,99962.91
2023-02-17T23:44:37.038Z,99958.75
2023-02-17T23:47:12.893Z,99951.25
2023-02-17T23:49:41.682Z,99944.75
2023-02-17T23:52:11.659Z,99950.41
2023-02-17T23:54:45.422Z,99948.53
2023-02-17T23:57:14.203Z,99944.38
2023-02-17T23:59:43.136Z,99944.56
